createdAt,value
2022-10-28T00:02:33.567Z,100.00
2022-10-28T00:07:35.497Z,100.00
2022-10-28T00:12:38.087Z,100.00
2022-10-28T00:17:40.010Z,100.00
2022-10-28T00:22:42.357Z,100.00
2022-10-28T00:27:44.111Z,100.00
2022-10-28T00:32:48.359Z,100.00
2022-10-28T00:37:53.522Z,100.00
2022-10-28T00:42:55.798Z,100.00
2022-10-28T00:48:02.329Z,100.00
2022-10-28T00:53:09.982Z,100.00
2022-10-28T00:58:12.551Z,100.00
2022-10-28T01:03:16.064Z,100.00
2022-10-28T01:08:18.085Z,100.00
2022-10-28T01:13:38.369Z,100.00
2022-10-28T01:18:58.050Z,100.00
2022-10-28T01:24:15.802Z,100.00
2022-10-28T01:30:11.143Z,100.00
2022-10-28T01:35:22.474Z,100.00
2022-10-28T01:40:50.167Z,100.00
2022-10-28T01:46:01.817Z,100.00
2022-10-28T01:51:13.215Z,100.00
2022-10-28T01:56:19.243Z,100.00
2022-10-28T02:01:23.927Z,100.00
2022-10-28T02:06:29.640Z,100.00
2022-10-28T02:11:54.018Z,100.00
2022-10-28T02:22:36.973Z,100.00
2022-10-28T02:33:18.257Z,100.00
2022-10-28T02:38:43.827Z,100.00
2022-10-28T02:43:48.022Z,100.00
2022-10-28T02:48:56.638Z,100.00
2022-10-28T02:54:19.766Z,100.00
2022-10-28T02:59:25.498Z,100.00
2022-10-28T03:04:27.214Z,100.00
2022-10-28T03:09:29.131Z,100.00
2022-10-28T03:14:31.138Z,100.00
2022-10-28T03:19:32.863Z,100.00
2022-10-28T03:24:34.706Z,100.00
2022-10-28T03:29:36.801Z,100.00
2022-10-28T03:34:38.643Z,100.00
2022-10-28T03:39:40.372Z,100.00
2022-10-28T03:44:42.124Z,100.00
2022-10-28T03:49:44.316Z,100.00
2022-10-28T03:54:46.185Z,100.00
2022-10-28T03:59:47.827Z,100.00
2022-10-28T04:04:52.316Z,100.00
2022-10-28T04:09:54.077Z,100.00
2022-10-28T04:14:55.837Z,100.00
2022-10-28T04:19:57.560Z,100.00
2022-10-28T04:24:59.284Z,100.00
2022-10-28T04:30:01.110Z,100.00
2022-10-28T04:35:02.928Z,100.00
2022-10-28T04:40:05.809Z,100.00
2022-10-28T04:45:10.386Z,100.00
2022-10-28T04:50:12.254Z,100.00
2022-10-28T04:55:14.174Z,100.00
2022-10-28T05:00:16.225Z,100.00
2022-10-28T05:05:18.764Z,100.00
2022-10-28T05:10:20.497Z,100.00
2022-10-28T05:15:22.430Z,100.00
2022-10-28T05:20:24.609Z,100.00
2022-10-28T05:25:26.844Z,100.00
2022-10-28T05:30:29.052Z,100.00
2022-10-28T05:35:31.609Z,100.00
2022-10-28T05:40:34.146Z,100.00
2022-10-28T05:45:36.209Z,100.00
2022-10-28T05:50:38.242Z,100.00
2022-10-28T05:55:45.139Z,100.00
2022-10-28T06:00:55.809Z,100.00
2022-10-28T06:06:00.612Z,100.00
2022-10-28T06:11:00.815Z,100.00
2022-10-28T06:16:03.601Z,100.00
2022-10-28T06:21:06.258Z,100.00
2022-10-28T06:26:08.780Z,100.00
2022-10-28T06:31:10.708Z,100.00
2022-10-28T06:36:18.041Z,100.00
2022-10-28T06:41:25.422Z,100.00
2022-10-28T06:46:27.719Z,100.00
2022-10-28T06:51:35.433Z,100.00
2022-10-28T06:56:37.526Z,100.00
2022-10-28T07:01:58.321Z,100.00
2022-10-28T07:07:25.294Z,100.00
2022-10-28T07:12:37.006Z,100.00
2022-10-28T07:23:18.335Z,100.00
2022-10-28T07:34:54.726Z,100.00
2022-10-28T07:40:04.424Z,100.00
2022-10-28T07:45:16.287Z,100.00
2022-10-28T07:50:18.449Z,100.00
2022-10-28T07:55:33.317Z,100.00
2022-10-28T08:06:45.706Z,100.00
2022-10-28T08:12:51.947Z,100.00
2022-10-28T08:23:59.316Z,100.00
2022-10-28T08:29:09.007Z,100.00
2022-10-28T08:39:41.258Z,100.00
2022-10-28T08:45:10.866Z,100.00
2022-10-28T09:08:59.433Z,100.00
2022-10-28T09:14:10.490Z,100.00
2022-10-28T09:19:34.847Z,100.00
2022-10-28T09:25:13.901Z,100.00
2022-10-28T09:30:27.218Z,100.00
2022-10-28T09:35:59.739Z,100.00
2022-10-28T09:41:20.356Z,100.00
2022-10-28T09:46:23.968Z,100.00
2022-10-28T09:51:32.303Z,99.97
2022-10-28T09:56:34.767Z,100.00
2022-10-28T10:01:39.511Z,100.00
2022-10-28T10:18:39.732Z,99.54
2022-10-28T10:23:41.796Z,99.98
2022-10-28T10:29:00.051Z,99.84
2022-10-28T10:40:49.964Z,99.53
2022-10-28T10:46:22.774Z,99.32
2022-10-28T10:52:22.331Z,99.63
2022-10-28T10:57:26.339Z,99.90
2022-10-28T11:02:32.659Z,99.86
2022-10-28T11:07:40.572Z,99.57
2022-10-28T11:13:12.175Z,99.29
2022-10-28T11:18:21.553Z,99.15
2022-10-28T11:23:47.499Z,98.74
2022-10-28T11:35:27.934Z,98.61
2022-10-28T11:41:00.437Z,98.29
2022-10-28T11:46:19.779Z,98.07
2022-10-28T11:51:53.511Z,98.39
2022-10-28T11:57:08.887Z,98.53
2022-10-28T12:02:20.012Z,98.10
2022-10-28T12:07:50.985Z,98.44
2022-10-28T12:12:55.919Z,98.15
2022-10-28T12:18:08.640Z,97.90
2022-10-28T12:23:19.297Z,97.90
2022-10-28T12:28:37.139Z,97.61
2022-10-28T12:33:58.528Z,97.91
2022-10-28T12:39:33.457Z,97.89
2022-10-28T12:44:50.023Z,98.17
2022-10-28T12:50:20.549Z,98.51
2022-10-28T12:55:42.573Z,98.83
2022-10-28T13:00:56.954Z,99.54
2022-10-28T13:06:44.075Z,99.37
2022-10-28T13:12:26.270Z,99.66
2022-10-28T13:17:56.476Z,99.45
2022-10-28T13:23:18.771Z,99.67
2022-10-28T13:28:25.224Z,99.12
2022-10-28T13:33:29.200Z,99.21
2022-10-28T13:38:31.398Z,99.51
2022-10-28T13:43:59.497Z,99.10
2022-10-28T13:49:26.524Z,98.90
2022-10-28T13:54:35.466Z,99.05
2022-10-28T13:59:57.710Z,98.92
2022-10-28T14:23:32.001Z,100.00
2022-10-28T14:28:49.906Z,100.00
2022-10-28T14:40:36.360Z,100.00
2022-10-28T14:46:16.291Z,100.00
2022-10-28T14:52:31.962Z,100.00
2022-10-28T15:05:08.913Z,100.00
2022-10-28T15:10:58.256Z,100.00
2022-10-28T15:22:14.016Z,100.00
2022-10-28T15:27:27.418Z,100.00
2022-10-28T15:45:14.454Z,100.00
2022-10-28T15:57:30.173Z,100.00
2022-10-28T16:02:53.259Z,100.00
2022-10-28T16:07:56.069Z,100.00
2022-10-28T16:13:07.612Z,100.00
2022-10-28T16:18:37.716Z,99.97
2022-10-28T18:20:02.693Z,100.00
